Time;durP1;ratioP1;P1;durP2;ratioP2;P2;SDS_P1;SDS_P2;PMS_P1;PMS_P2;Temp;Humidity;BMP_temperature;BMP_pressure;BME280_temperature;BME280_humidity;BME280_pressure;Samples;Min_cycle;Max_cycle;Signal;HPM_P1;HPM_P2
2023/09/04 00:00:30;;;;;;;7.38;3.53;;;;;;;;;;5076779;28;20055;-44
2023/09/04 00:02:55;;;;;;;5.57;3.92;;;;;;;;;;5077030;28;20032;-41
2023/09/04 00:05:21;;;;;;;4.53;3.78;;;;;;;;;;5075604;28;20048;-44
2023/09/04 00:07:46;;;;;;;5.60;3.45;;;;;;;;;;5076671;28;20028;-41
2023/09/04 00:10:12;;;;;;;8.50;3.97;;;;;;;;;;5075395;28;20029;-43
2023/09/04 00:12:38;;;;;;;4.28;3.63;;;;;;;;;;5077403;28;20032;-42
2023/09/04 00:15:04;;;;;;;9.52;3.50;;;;;;;;;;5073500;28;20048;-41
2023/09/04 00:17:30;;;;;;;8.32;4.00;;;;;;;;;;5069427;28;20441;-41
2023/09/04 00:19:56;;;;;;;6.88;3.95;;;;;;;;;;5076542;28;20036;-41
2023/09/04 00:22:22;;;;;;;5.53;3.45;;;;;;;;;;5075407;28;20455;-43
2023/09/04 00:24:47;;;;;;;8.00;3.50;;;;;;;;;;5074247;28;20036;-42
2023/09/04 00:27:12;;;;;;;8.40;3.50;;;;;;;;;;5077311;28;20028;-43
2023/09/04 00:29:38;;;;;;;7.28;3.55;;;;;;;;;;5075938;28;20033;-41
2023/09/04 00:32:05;;;;;;;4.78;3.15;;;;;;;;;;5064817;28;20038;-41
2023/09/04 00:34:31;;;;;;;8.25;3.92;;;;;;;;;;5063422;28;20037;-43
2023/09/04 00:36:57;;;;;;;5.70;3.72;;;;;;;;;;5077575;28;20027;-42
2023/09/04 00:39:22;;;;;;;7.47;3.60;;;;;;;;;;5068317;28;20029;-40
2023/09/04 00:41:47;;;;;;;7.72;3.58;;;;;;;;;;5076964;28;20125;-41
2023/09/04 00:44:13;;;;;;;11.85;3.47;;;;;;;;;;5072077;28;20029;-40
2023/09/04 00:46:40;;;;;;;6.63;4.00;;;;;;;;;;5073683;28;20090;-42
2023/09/04 00:49:05;;;;;;;8.55;3.60;;;;;;;;;;5076575;28;20032;-45
2023/09/04 00:51:31;;;;;;;5.88;3.60;;;;;;;;;;5076593;28;20074;-41
2023/09/04 00:53:56;;;;;;;3.30;3.00;;;;;;;;;;5074431;28;20052;-41
2023/09/04 00:56:24;;;;;;;3.47;2.92;;;;;;;;;;5074566;28;20105;-43
2023/09/04 00:58:50;;;;;;;8.45;3.63;;;;;;;;;;5076602;28;20056;-45
2023/09/04 01:01:15;;;;;;;3.60;2.95;;;;;;;;;;5075999;28;20025;-44
2023/09/04 01:03:41;;;;;;;4.20;3.67;;;;;;;;;;5074038;28;20032;-43
2023/09/04 01:06:07;;;;;;;4.30;3.28;;;;;;;;;;5069853;28;20051;-40
2023/09/04 01:08:33;;;;;;;7.95;3.08;;;;;;;;;;5076109;28;20064;-41
2023/09/04 01:11:26;;;;;;;4.43;3.05;;;;;;;;;;5074966;28;20089;-41
2023/09/04 01:13:53;;;;;;;3.58;3.28;;;;;;;;;;5074219;28;20480;-41
2023/09/04 01:16:22;;;;;;;4.47;3.28;;;;;;;;;;5075483;28;20078;-43
2023/09/04 01:18:48;;;;;;;8.02;3.15;;;;;;;;;;5071411;28;20367;-41
2023/09/04 01:21:13;;;;;;;4.22;2.75;;;;;;;;;;5079062;28;20032;-42
2023/09/04 01:23:39;;;;;;;4.43;3.50;;;;;;;;;;5074471;28;20039;-40
2023/09/04 01:26:32;;;;;;;4.03;3.08;;;;;;;;;;5075698;28;20036;-43
2023/09/04 01:29:30;;;;;;;3.65;3.20;;;;;;;;;;5074064;28;20062;-44
2023/09/04 01:32:03;;;;;;;5.72;3.33;;;;;;;;;;5052473;28;20665;-43
2023/09/04 01:34:41;;;;;;;5.88;3.00;;;;;;;;;;5071876;28;20106;-44
2023/09/04 01:37:08;;;;;;;5.05;3.03;;;;;;;;;;5076369;28;20024;-43
2023/09/04 01:39:34;;;;;;;4.68;2.88;;;;;;;;;;5063835;28;20753;-44
2023/09/04 01:41:59;;;;;;;2.72;2.53;;;;;;;;;;5070367;28;20100;-43
2023/09/04 01:44:25;;;;;;;5.47;3.30;;;;;;;;;;5071747;28;20570;-41
2023/09/04 01:46:50;;;;;;;3.50;2.60;;;;;;;;;;5074770;28;20123;-42
2023/09/04 01:49:16;;;;;;;5.90;3.33;;;;;;;;;;5072557;28;20047;-44
2023/09/04 01:51:41;;;;;;;5.82;2.90;;;;;;;;;;5075759;28;20073;-43
2023/09/04 01:54:07;;;;;;;5.60;2.95;;;;;;;;;;5068494;28;20040;-43
2023/09/04 01:56:33;;;;;;;3.33;3.08;;;;;;;;;;5075863;28;20104;-44
2023/09/04 01:58:58;;;;;;;6.28;2.90;;;;;;;;;;5074492;28;20072;-42
2023/09/04 02:01:23;;;;;;;5.20;2.80;;;;;;;;;;5070497;28;20084;-41
2023/09/04 02:03:54;;;;;;;3.33;2.85;;;;;;;;;;5074634;28;20040;-41
2023/09/04 02:06:20;;;;;;;5.75;3.25;;;;;;;;;;5070893;28;20044;-46
2023/09/04 02:08:45;;;;;;;3.80;2.92;;;;;;;;;;5072197;28;20039;-44
2023/09/04 02:11:11;;;;;;;2.72;2.45;;;;;;;;;;5075164;28;20103;-42
2023/09/04 02:13:36;;;;;;;5.95;2.55;;;;;;;;;;5065245;28;20085;-40
2023/09/04 02:16:02;;;;;;;3.72;2.70;;;;;;;;;;5066860;28;20120;-41
2023/09/04 02:18:27;;;;;;;3.60;2.95;;;;;;;;;;5071657;28;20092;-43
2023/09/04 02:20:53;;;;;;;2.95;2.60;;;;;;;;;;5072731;28;20401;-41
2023/09/04 02:23:18;;;;;;;4.50;3.00;;;;;;;;;;5073869;28;20032;-45
2023/09/04 02:25:47;;;;;;;4.10;3.20;;;;;;;;;;5074336;28;20094;-49
2023/09/04 02:28:12;;;;;;;3.72;3.05;;;;;;;;;;5074572;28;20051;-44
2023/09/04 02:30:38;;;;;;;6.30;2.90;;;;;;;;;;5074781;28;20033;-45
2023/09/04 02:33:04;;;;;;;3.30;2.35;;;;;;;;;;5072984;28;20522;-43
2023/09/04 02:35:29;;;;;;;2.95;2.75;;;;;;;;;;5072089;28;20047;-41
2023/09/04 02:37:55;;;;;;;7.30;2.88;;;;;;;;;;5074203;28;20638;-43
2023/09/04 02:40:20;;;;;;;4.22;2.70;;;;;;;;;;5074519;28;20548;-44
2023/09/04 02:42:46;;;;;;;7.40;3.00;;;;;;;;;;5077139;28;20057;-44
2023/09/04 02:45:12;;;;;;;5.35;2.88;;;;;;;;;;5077148;28;20096;-45
2023/09/04 02:47:37;;;;;;;3.72;2.95;;;;;;;;;;5075730;28;20025;-42
2023/09/04 02:50:06;;;;;;;4.75;2.85;;;;;;;;;;5077801;28;20040;-43
2023/09/04 02:52:32;;;;;;;3.30;2.70;;;;;;;;;;5078419;28;20044;-41
2023/09/04 02:54:57;;;;;;;5.65;2.95;;;;;;;;;;5077357;28;20040;-42
2023/09/04 02:57:23;;;;;;;5.68;3.00;;;;;;;;;;5077698;28;20107;-42
2023/09/04 02:59:48;;;;;;;4.63;2.90;;;;;;;;;;5075801;28;20120;-43
2023/09/04 03:02:14;;;;;;;3.50;2.97;;;;;;;;;;5077169;28;20474;-41
2023/09/04 03:04:40;;;;;;;4.28;2.92;;;;;;;;;;5075180;28;20071;-46
2023/09/04 03:07:06;;;;;;;5.43;3.03;;;;;;;;;;5077341;28;20021;-46
2023/09/04 03:09:31;;;;;;;3.70;3.00;;;;;;;;;;5076280;28;20078;-44
2023/09/04 03:11:58;;;;;;;3.92;2.80;;;;;;;;;;5078695;28;20382;-44
2023/09/04 03:14:23;;;;;;;4.40;3.63;;;;;;;;;;5075451;28;20036;-45
2023/09/04 03:16:49;;;;;;;3.83;2.80;;;;;;;;;;5070977;28;20035;-46
2023/09/04 03:19:14;;;;;;;4.40;3.20;;;;;;;;;;5078414;28;20033;-46
2023/09/04 03:21:39;;;;;;;5.30;2.97;;;;;;;;;;5078790;28;20607;-43
2023/09/04 03:24:05;;;;;;;4.28;2.85;;;;;;;;;;5073465;28;20082;-42
2023/09/04 03:26:31;;;;;;;4.07;2.88;;;;;;;;;;5073872;28;20044;-45
2023/09/04 03:28:56;;;;;;;3.92;3.30;;;;;;;;;;5077979;28;20033;-43
2023/09/04 03:31:21;;;;;;;3.88;3.00;;;;;;;;;;5074221;28;20052;-44
2023/09/04 03:33:47;;;;;;;9.77;3.45;;;;;;;;;;5077555;28;20561;-45
2023/09/04 03:36:12;;;;;;;4.35;2.80;;;;;;;;;;5077527;28;20020;-45
2023/09/04 03:38:38;;;;;;;4.57;2.85;;;;;;;;;;5069309;28;20151;-44
2023/09/04 03:41:04;;;;;;;4.95;3.13;;;;;;;;;;5077300;28;20067;-43
2023/09/04 03:43:29;;;;;;;7.15;2.90;;;;;;;;;;5078201;28;20036;-45
2023/09/04 03:45:55;;;;;;;5.43;3.35;;;;;;;;;;5071460;28;20041;-46
2023/09/04 03:48:20;;;;;;;3.15;2.80;;;;;;;;;;5075667;28;20035;-43
2023/09/04 03:50:46;;;;;;;5.70;3.15;;;;;;;;;;5072378;28;20123;-44
2023/09/04 03:53:11;;;;;;;3.47;3.05;;;;;;;;;;5074343;28;20035;-42
2023/09/04 03:55:37;;;;;;;5.70;3.08;;;;;;;;;;5073164;28;20139;-44
2023/09/04 03:58:03;;;;;;;4.50;3.30;;;;;;;;;;5076282;28;20040;-45
2023/09/04 04:00:30;;;;;;;3.33;2.88;;;;;;;;;;5069386;28;20032;-44
2023/09/04 04:02:57;;;;;;;5.32;3.05;;;;;;;;;;5074225;28;20024;-45
2023/09/04 04:05:23;;;;;;;3.35;2.72;;;;;;;;;;5076271;28;20102;-48
2023/09/04 04:07:49;;;;;;;5.45;3.08;;;;;;;;;;5077697;28;20031;-43
2023/09/04 04:10:14;;;;;;;4.70;3.00;;;;;;;;;;5073714;28;20514;-44
2023/09/04 04:12:40;;;;;;;4.15;3.10;;;;;;;;;;5074235;28;20020;-44
2023/09/04 04:15:06;;;;;;;3.25;3.03;;;;;;;;;;5069550;28;20043;-43
2023/09/04 04:17:36;;;;;;;5.57;3.33;;;;;;;;;;5077656;28;20052;-43
2023/09/04 04:20:06;;;;;;;7.97;2.90;;;;;;;;;;5075916;28;20119;-46
2023/09/04 04:22:32;;;;;;;4.10;3.30;;;;;;;;;;5077810;28;20076;-45
2023/09/04 04:24:57;;;;;;;4.93;3.00;;;;;;;;;;5075159;28;20442;-44
2023/09/04 04:27:23;;;;;;;3.47;2.83;;;;;;;;;;5076588;28;20032;-43
2023/09/04 04:29:51;;;;;;;3.70;3.20;;;;;;;;;;5076721;28;20033;-43
2023/09/04 04:32:16;;;;;;;3.42;3.20;;;;;;;;;;5075140;28;20048;-46
2023/09/04 04:34:42;;;;;;;7.10;3.33;;;;;;;;;;5072539;28;20110;-42
2023/09/04 04:37:07;;;;;;;2.97;2.72;;;;;;;;;;5076931;28;20382;-44
2023/09/04 04:39:33;;;;;;;3.90;3.10;;;;;;;;;;5075623;28;20036;-45
2023/09/04 04:41:58;;;;;;;5.18;3.53;;;;;;;;;;5077390;28;20064;-44
2023/09/04 04:44:24;;;;;;;3.60;3.00;;;;;;;;;;5074593;28;20382;-43
2023/09/04 04:46:49;;;;;;;4.95;2.88;;;;;;;;;;5076738;28;20074;-43
2023/09/04 04:49:21;;;;;;;6.57;3.40;;;;;;;;;;5075780;28;20105;-44
2023/09/04 04:51:47;;;;;;;5.88;3.30;;;;;;;;;;5072522;28;20028;-41
2023/09/04 04:54:12;;;;;;;3.47;3.17;;;;;;;;;;5073027;28;20032;-43
2023/09/04 04:56:39;;;;;;;3.40;3.10;;;;;;;;;;5074627;28;20096;-44
2023/09/04 04:59:05;;;;;;;4.10;2.95;;;;;;;;;;5072979;28;20394;-43
2023/09/04 05:01:31;;;;;;;6.00;3.70;;;;;;;;;;5076465;28;20039;-45
2023/09/04 05:03:56;;;;;;;6.70;3.33;;;;;;;;;;5072078;28;20478;-42
2023/09/04 05:06:22;;;;;;;5.18;3.60;;;;;;;;;;5075919;28;20039;-44
2023/09/04 05:08:48;;;;;;;6.90;3.55;;;;;;;;;;5074120;28;20044;-43
2023/09/04 05:11:14;;;;;;;7.50;2.97;;;;;;;;;;5072533;28;20036;-45
2023/09/04 05:13:39;;;;;;;4.38;3.30;;;;;;;;;;5075148;28;20020;-45
2023/09/04 05:16:05;;;;;;;5.60;3.33;;;;;;;;;;5071441;28;20036;-45
2023/09/04 05:18:31;;;;;;;7.38;3.33;;;;;;;;;;5073798;28;20047;-44
2023/09/04 05:20:57;;;;;;;5.05;2.95;;;;;;;;;;5070702;28;20033;-44
2023/09/04 05:23:23;;;;;;;3.80;3.17;;;;;;;;;;5082599;28;20038;-42
2023/09/04 05:25:49;;;;;;;5.20;3.55;;;;;;;;;;5074177;28;20037;-43
2023/09/04 05:28:15;;;;;;;3.83;2.90;;;;;;;;;;5070041;28;20029;-45
2023/09/04 05:30:40;;;;;;;9.02;3.55;;;;;;;;;;5071684;28;20089;-42
2023/09/04 05:33:06;;;;;;;5.85;3.08;;;;;;;;;;5073392;28;20028;-44
2023/09/04 05:35:31;;;;;;;5.45;3.15;;;;;;;;;;5069823;28;20038;-43
2023/09/04 05:37:58;;;;;;;3.88;3.30;;;;;;;;;;5065371;28;20035;-43
2023/09/04 05:40:24;;;;;;;5.18;3.42;;;;;;;;;;5063135;28;20033;-42
2023/09/04 05:42:50;;;;;;;7.63;3.45;;;;;;;;;;5066117;28;20028;-43
2023/09/04 05:45:16;;;;;;;5.53;3.15;;;;;;;;;;5068430;28;20094;-45
2023/09/04 05:47:42;;;;;;;5.10;3.35;;;;;;;;;;5071036;28;20025;-43
2023/09/04 05:50:08;;;;;;;8.65;3.22;;;;;;;;;;5072880;28;20704;-44
2023/09/04 05:52:33;;;;;;;7.70;3.80;;;;;;;;;;5068911;28;20067;-43
2023/09/04 05:54:59;;;;;;;3.90;3.05;;;;;;;;;;5072357;28;20039;-44
2023/09/04 05:57:24;;;;;;;3.22;2.90;;;;;;;;;;5072353;28;20612;-42
2023/09/04 05:59:50;;;;;;;6.45;3.22;;;;;;;;;;5073291;28;20049;-44
2023/09/04 06:02:15;;;;;;;3.20;2.90;;;;;;;;;;5068137;28;20037;-45
2023/09/04 06:04:41;;;;;;;7.20;3.05;;;;;;;;;;5074146;28;20040;-43
2023/09/04 06:07:06;;;;;;;3.33;2.97;;;;;;;;;;5073384;28;20707;-44
2023/09/04 06:09:32;;;;;;;6.72;3.38;;;;;;;;;;5071088;28;20505;-45
2023/09/04 06:11:58;;;;;;;4.30;3.10;;;;;;;;;;5071167;28;20028;-43
2023/09/04 06:14:23;;;;;;;5.15;3.70;;;;;;;;;;5072649;28;20619;-43
2023/09/04 06:16:49;;;;;;;3.83;2.95;;;;;;;;;;5063682;28;20032;-43
2023/09/04 06:19:14;;;;;;;3.35;2.95;;;;;;;;;;5071780;28;20040;-45
2023/09/04 06:21:40;;;;;;;4.85;3.00;;;;;;;;;;5068830;28;20112;-44
2023/09/04 06:24:05;;;;;;;7.60;2.90;;;;;;;;;;5071251;28;20044;-44
2023/09/04 06:26:31;;;;;;;7.13;3.22;;;;;;;;;;5067819;28;20120;-43
2023/09/04 06:28:56;;;;;;;5.75;3.35;;;;;;;;;;5073819;28;20035;-44
2023/09/04 06:31:21;;;;;;;4.07;2.92;;;;;;;;;;5073644;28;20047;-44
2023/09/04 06:33:47;;;;;;;8.48;2.90;;;;;;;;;;5065626;28;20033;-46
2023/09/04 06:36:14;;;;;;;4.82;3.17;;;;;;;;;;5073535;28;20035;-44
2023/09/04 06:38:39;;;;;;;10.88;3.30;;;;;;;;;;5071907;28;20028;-44
2023/09/04 06:41:05;;;;;;;4.65;3.13;;;;;;;;;;5064860;28;20528;-45
2023/09/04 06:43:30;;;;;;;4.43;3.00;;;;;;;;;;5069392;28;20036;-48
2023/09/04 06:45:58;;;;;;;4.10;3.25;;;;;;;;;;5085632;28;20415;-45
2023/09/04 06:48:24;;;;;;;8.40;3.55;;;;;;;;;;5066798;28;20029;-46
2023/09/04 06:50:52;;;;;;;6.03;3.42;;;;;;;;;;5070692;28;20041;-46
2023/09/04 06:53:18;;;;;;;4.60;3.90;;;;;;;;;;5066391;28;20020;-44
2023/09/04 06:55:46;;;;;;;7.75;4.00;;;;;;;;;;5068682;28;20131;-43
2023/09/04 06:58:12;;;;;;;5.85;3.63;;;;;;;;;;5072203;28;20020;-44
2023/09/04 07:00:37;;;;;;;6.47;3.75;;;;;;;;;;5071207;28;20035;-43
2023/09/04 07:03:04;;;;;;;6.53;3.67;;;;;;;;;;5073675;28;20091;-43
2023/09/04 07:05:30;;;;;;;6.47;3.63;;;;;;;;;;5071896;28;20033;-44
2023/09/04 07:07:55;;;;;;;4.20;3.28;;;;;;;;;;5072183;28;20071;-42
2023/09/04 07:10:20;;;;;;;10.27;3.35;;;;;;;;;;5073527;28;20064;-46
2023/09/04 07:12:46;;;;;;;4.63;3.15;;;;;;;;;;5065313;28;20043;-47
2023/09/04 07:15:12;;;;;;;7.55;3.83;;;;;;;;;;5073171;28;20032;-44
2023/09/04 07:17:38;;;;;;;7.68;3.15;;;;;;;;;;5075234;28;20021;-45
2023/09/04 07:20:04;;;;;;;5.50;3.35;;;;;;;;;;5071901;28;20037;-43
2023/09/04 07:22:30;;;;;;;7.32;3.75;;;;;;;;;;5073479;28;20041;-46
2023/09/04 07:24:55;;;;;;;3.40;3.08;;;;;;;;;;5070350;28;20100;-44
2023/09/04 07:27:21;;;;;;;6.82;2.90;;;;;;;;;;5075710;28;20059;-43
2023/09/04 07:29:46;;;;;;;5.43;2.95;;;;;;;;;;5076778;28;20045;-42
2023/09/04 07:32:12;;;;;;;5.75;3.35;;;;;;;;;;5072105;28;20116;-44
2023/09/04 07:34:38;;;;;;;5.72;3.38;;;;;;;;;;5072485;28;20116;-42
2023/09/04 07:37:03;;;;;;;3.40;2.83;;;;;;;;;;5069493;28;20051;-44
2023/09/04 07:39:29;;;;;;;6.97;3.33;;;;;;;;;;5070583;28;20490;-43
2023/09/04 07:41:56;;;;;;;4.80;3.50;;;;;;;;;;5075508;28;20121;-44
2023/09/04 07:44:21;;;;;;;9.25;3.33;;;;;;;;;;5072639;28;20040;-41
2023/09/04 07:46:47;;;;;;;5.60;3.10;;;;;;;;;;5076677;28;20043;-43
2023/09/04 07:49:12;;;;;;;8.07;2.90;;;;;;;;;;5074676;28;20116;-42
2023/09/04 07:51:39;;;;;;;3.80;3.20;;;;;;;;;;5076558;28;20366;-44
2023/09/04 07:54:04;;;;;;;4.60;2.90;;;;;;;;;;5080056;28;20044;-40
2023/09/04 07:56:30;;;;;;;8.93;3.10;;;;;;;;;;5071479;28;20021;-43
2023/09/04 07:58:55;;;;;;;4.80;3.30;;;;;;;;;;5071673;28;20054;-44
2023/09/04 08:01:21;;;;;;;4.78;2.95;;;;;;;;;;5072464;28;20035;-45
2023/09/04 08:03:46;;;;;;;5.30;3.00;;;;;;;;;;5065977;28;20107;-44
2023/09/04 08:06:11;;;;;;;7.32;2.85;;;;;;;;;;5076218;28;20107;-44
2023/09/04 08:08:37;;;;;;;4.57;3.10;;;;;;;;;;5075256;28;20082;-44
2023/09/04 08:11:02;;;;;;;4.32;3.03;;;;;;;;;;5074554;28;20040;-45
2023/09/04 08:13:28;;;;;;;5.72;3.05;;;;;;;;;;5073232;28;20086;-44
2023/09/04 08:15:53;;;;;;;6.53;3.15;;;;;;;;;;5073354;28;20512;-42
2023/09/04 08:18:19;;;;;;;13.38;3.17;;;;;;;;;;5070067;28;20083;-47
2023/09/04 08:20:44;;;;;;;9.20;3.10;;;;;;;;;;5073759;28;20037;-44
2023/09/04 08:23:10;;;;;;;6.28;2.70;;;;;;;;;;5076525;28;20116;-42
2023/09/04 08:25:36;;;;;;;13.05;3.22;;;;;;;;;;5074105;28;20033;-48
2023/09/04 08:28:03;;;;;;;5.35;3.03;;;;;;;;;;5073487;28;20489;-43
2023/09/04 08:30:29;;;;;;;3.97;2.47;;;;;;;;;;5075129;28;20402;-44
2023/09/04 08:32:54;;;;;;;3.83;2.60;;;;;;;;;;5070261;28;20039;-42
2023/09/04 08:35:20;;;;;;;3.25;2.55;;;;;;;;;;5070804;28;20037;-44
2023/09/04 08:37:46;;;;;;;5.45;2.80;;;;;;;;;;5069738;28;20036;-41
2023/09/04 08:40:12;;;;;;;4.20;3.03;;;;;;;;;;5063672;28;20115;-43
2023/09/04 08:42:39;;;;;;;4.78;2.42;;;;;;;;;;5074019;28;20054;-43
2023/09/04 08:45:08;;;;;;;3.28;2.80;;;;;;;;;;5079189;28;20067;-43
2023/09/04 08:47:40;;;;;;;5.13;2.60;;;;;;;;;;5071462;28;20043;-45
2023/09/04 08:50:07;;;;;;;3.15;2.95;;;;;;;;;;5075097;28;20436;-44
2023/09/04 08:52:35;;;;;;;2.90;2.70;;;;;;;;;;5076916;28;20028;-44
2023/09/04 08:55:01;;;;;;;5.30;2.72;;;;;;;;;;5068188;28;20050;-43
2023/09/04 08:57:28;;;;;;;3.35;2.65;;;;;;;;;;5071998;28;20111;-45
2023/09/04 08:59:54;;;;;;;2.70;2.20;;;;;;;;;;5075781;28;20511;-47
2023/09/04 09:02:19;;;;;;;3.97;2.70;;;;;;;;;;5068998;28;20036;-45
2023/09/04 09:04:45;;;;;;;3.45;2.65;;;;;;;;;;5069701;28;20421;-42
2023/09/04 09:07:13;;;;;;;5.55;2.72;;;;;;;;;;5075112;28;20032;-42
2023/09/04 09:09:44;;;;;;;6.53;2.97;;;;;;;;;;5074207;28;20108;-42
2023/09/04 09:12:09;;;;;;;5.03;2.50;;;;;;;;;;5073986;28;20029;-41
2023/09/04 09:14:35;;;;;;;3.95;2.63;;;;;;;;;;5073432;28;20574;-44
2023/09/04 09:17:07;;;;;;;7.10;2.58;;;;;;;;;;5073389;28;20017;-42
2023/09/04 09:19:35;;;;;;;6.18;3.00;;;;;;;;;;5075316;28;20175;-42
2023/09/04 09:22:09;;;;;;;8.98;3.00;;;;;;;;;;5067223;28;20032;-44
2023/09/04 09:24:48;;;;;;;7.55;2.80;;;;;;;;;;5073885;28;20075;-46
2023/09/04 09:27:14;;;;;;;6.97;2.30;;;;;;;;;;5071067;28;20033;-46
2023/09/04 09:29:39;;;;;;;8.02;2.38;;;;;;;;;;5067491;28;20033;-45
2023/09/04 09:32:05;;;;;;;4.93;2.60;;;;;;;;;;5070916;28;20065;-43
2023/09/04 09:34:34;;;;;;;2.25;2.05;;;;;;;;;;5074175;28;21096;-48
2023/09/04 09:37:00;;;;;;;3.97;2.00;;;;;;;;;;5073772;28;20032;-45
2023/09/04 09:39:26;;;;;;;2.53;2.33;;;;;;;;;;5068517;28;20041;-46
2023/09/04 09:41:51;;;;;;;3.47;2.28;;;;;;;;;;5070809;28;20047;-46
2023/09/04 09:44:17;;;;;;;3.00;2.53;;;;;;;;;;5075339;28;20033;-47
2023/09/04 09:46:43;;;;;;;9.70;2.10;;;;;;;;;;5073784;28;20040;-45
2023/09/04 09:49:08;;;;;;;4.45;2.30;;;;;;;;;;5074663;28;20082;-43
2023/09/04 09:51:38;;;;;;;4.00;2.30;;;;;;;;;;5074067;28;20043;-46
2023/09/04 09:54:05;;;;;;;5.85;2.60;;;;;;;;;;5072704;28;20084;-46
2023/09/04 09:56:30;;;;;;;2.63;2.10;;;;;;;;;;5070081;28;20109;-45
2023/09/04 09:58:57;;;;;;;4.55;2.05;;;;;;;;;;5068869;28;20052;-47
2023/09/04 10:01:22;;;;;;;11.05;2.60;;;;;;;;;;5067017;28;20108;-44
2023/09/04 10:03:49;;;;;;;8.07;2.00;;;;;;;;;;5074632;28;20058;-49
2023/09/04 10:06:23;;;;;;;3.35;2.25;;;;;;;;;;5068250;28;20028;-47
2023/09/04 10:08:50;;;;;;;2.65;1.95;;;;;;;;;;5071943;28;20029;-43
2023/09/04 10:11:16;;;;;;;2.15;1.90;;;;;;;;;;5075650;28;20066;-44
2023/09/04 10:13:54;;;;;;;19.33;2.60;;;;;;;;;;5072283;28;20037;-48
2023/09/04 10:16:30;;;;;;;6.70;2.38;;;;;;;;;;5073564;28;20044;-47
2023/09/04 10:18:59;;;;;;;7.45;2.25;;;;;;;;;;5072151;28;20508;-47
2023/09/04 10:21:28;;;;;;;3.75;1.85;;;;;;;;;;5071978;28;20103;-46
2023/09/04 10:23:59;;;;;;;4.43;1.92;;;;;;;;;;5072980;28;20032;-47
2023/09/04 10:26:41;;;;;;;5.53;2.53;;;;;;;;;;5074805;28;20032;-47
2023/09/04 10:29:16;;;;;;;2.60;2.13;;;;;;;;;;5071112;28;20039;-49
2023/09/04 10:31:43;;;;;;;2.67;2.35;;;;;;;;;;5072241;28;20108;-45
2023/09/04 10:34:09;;;;;;;7.22;2.60;;;;;;;;;;5075212;28;20040;-47
2023/09/04 10:36:36;;;;;;;6.55;2.75;;;;;;;;;;5069989;28;20042;-50
2023/09/04 10:39:03;;;;;;;3.95;2.15;;;;;;;;;;5071608;28;20086;-48
2023/09/04 10:41:31;;;;;;;3.53;2.83;;;;;;;;;;5074599;28;20051;-50
2023/09/04 10:43:56;;;;;;;4.43;2.60;;;;;;;;;;5071558;28;20051;-48
2023/09/04 10:46:23;;;;;;;4.05;2.70;;;;;;;;;;5074840;28;20029;-50
2023/09/04 10:48:52;;;;;;;3.47;2.53;;;;;;;;;;5072382;28;20037;-47
2023/09/04 10:51:24;;;;;;;7.40;2.90;;;;;;;;;;5073530;28;20036;-50
2023/09/04 10:53:49;;;;;;;3.13;2.22;;;;;;;;;;5068685;28;20086;-46
2023/09/04 10:56:15;;;;;;;6.88;2.50;;;;;;;;;;5067448;28;20037;-46
2023/09/04 10:59:00;;;;;;;2.50;2.30;;;;;;;;;;5066223;28;20048;-45
2023/09/04 11:01:36;;;;;;;4.13;2.55;;;;;;;;;;5072389;28;20048;-46
2023/09/04 11:04:07;;;;;;;5.25;3.20;;;;;;;;;;5076711;28;20051;-44
2023/09/04 11:06:37;;;;;;;6.28;2.88;;;;;;;;;;5077549;28;20103;-47
2023/09/04 11:09:03;;;;;;;9.43;2.80;;;;;;;;;;5074241;28;20088;-49
2023/09/04 11:11:28;;;;;;;6.82;2.75;;;;;;;;;;5075863;28;20030;-45
2023/09/04 11:13:58;;;;;;;7.07;2.85;;;;;;;;;;5062825;28;20119;-47
2023/09/04 11:16:25;;;;;;;8.45;3.10;;;;;;;;;;5077475;28;20115;-49
2023/09/04 11:19:03;;;;;;;3.22;2.60;;;;;;;;;;5076007;28;20024;-44
2023/09/04 11:21:33;;;;;;;8.63;2.50;;;;;;;;;;5075498;28;20024;-45
2023/09/04 11:23:59;;;;;;;9.20;2.97;;;;;;;;;;5073734;28;20029;-45
2023/09/04 11:26:24;;;;;;;12.32;3.20;;;;;;;;;;5074380;28;20029;-50
2023/09/04 11:28:50;;;;;;;8.27;3.17;;;;;;;;;;5076819;28;20061;-47
2023/09/04 11:31:17;;;;;;;5.38;2.72;;;;;;;;;;5068802;28;20032;-43
2023/09/04 11:33:48;;;;;;;8.40;3.00;;;;;;;;;;5071289;28;20074;-46
2023/09/04 11:36:14;;;;;;;11.95;3.30;;;;;;;;;;5074436;28;20044;-44
2023/09/04 11:38:40;;;;;;;5.30;2.60;;;;;;;;;;5076089;28;20367;-45
2023/09/04 11:41:19;;;;;;;5.65;2.83;;;;;;;;;;5069661;28;20056;-44
2023/09/04 11:43:45;;;;;;;6.05;2.67;;;;;;;;;;5074558;28;20031;-46
2023/09/04 11:46:11;;;;;;;10.18;2.90;;;;;;;;;;5072361;28;20020;-43
2023/09/04 11:48:37;;;;;;;5.40;2.85;;;;;;;;;;5076438;28;20025;-46
2023/09/04 11:51:09;;;;;;;5.88;2.90;;;;;;;;;;5071792;28;20032;-47
2023/09/04 11:53:35;;;;;;;4.80;2.60;;;;;;;;;;5071925;28;20035;-45
2023/09/04 11:56:03;;;;;;;3.72;2.80;;;;;;;;;;5075428;28;20521;-47
2023/09/04 11:58:29;;;;;;;8.30;2.45;;;;;;;;;;5073479;28;20096;-48
2023/09/04 12:00:55;;;;;;;4.88;3.03;;;;;;;;;;5073041;28;20502;-45
2023/09/04 12:03:20;;;;;;;6.88;3.10;;;;;;;;;;5072706;28;20054;-45
2023/09/04 12:05:47;;;;;;;9.27;3.13;;;;;;;;;;5067685;28;20051;-44
2023/09/04 12:08:12;;;;;;;5.57;2.92;;;;;;;;;;5070740;28;20047;-45
2023/09/04 12:10:38;;;;;;;6.50;2.90;;;;;;;;;;5072106;28;20415;-45
2023/09/04 12:13:04;;;;;;;3.50;2.92;;;;;;;;;;5076383;28;20021;-44
2023/09/04 12:15:33;;;;;;;5.05;3.08;;;;;;;;;;5074029;28;20025;-48
2023/09/04 12:18:01;;;;;;;7.25;3.17;;;;;;;;;;5071116;28;20024;-44
2023/09/04 12:20:31;;;;;;;4.35;2.58;;;;;;;;;;5075990;28;20032;-49
2023/09/04 12:22:58;;;;;;;4.82;2.60;;;;;;;;;;5075174;28;20470;-43
2023/09/04 12:25:35;;;;;;;6.90;2.92;;;;;;;;;;5074320;28;20740;-49
2023/09/04 12:28:01;;;;;;;6.53;2.70;;;;;;;;;;5073197;28;20024;-48
2023/09/04 12:30:27;;;;;;;3.90;3.10;;;;;;;;;;5074966;28;20033;-43
2023/09/04 12:32:57;;;;;;;5.45;3.20;;;;;;;;;;5073486;28;20030;-47
2023/09/04 12:35:22;;;;;;;6.07;2.67;;;;;;;;;;5074122;28;20127;-44
2023/09/04 12:37:47;;;;;;;5.32;3.00;;;;;;;;;;5069764;28;20112;-46
2023/09/04 12:40:13;;;;;;;4.97;2.53;;;;;;;;;;5072866;28;20047;-49
2023/09/04 12:42:39;;;;;;;5.22;2.78;;;;;;;;;;5076150;28;20044;-47
2023/09/04 12:45:06;;;;;;;4.03;2.88;;;;;;;;;;5071024;28;20044;-44
2023/09/04 12:47:31;;;;;;;8.07;3.38;;;;;;;;;;5074167;28;20036;-43
2023/09/04 12:49:57;;;;;;;4.30;2.85;;;;;;;;;;5075472;28;20585;-43
2023/09/04 12:52:22;;;;;;;5.57;3.10;;;;;;;;;;5074457;28;20473;-45
2023/09/04 12:54:48;;;;;;;4.15;3.22;;;;;;;;;;5072100;28;20051;-48
2023/09/04 12:57:14;;;;;;;8.32;3.13;;;;;;;;;;5073437;28;20054;-46
2023/09/04 12:59:39;;;;;;;5.75;3.17;;;;;;;;;;5071560;28;20048;-44
2023/09/04 13:02:05;;;;;;;6.75;2.95;;;;;;;;;;5073441;28;20100;-48
2023/09/04 13:04:31;;;;;;;9.20;2.95;;;;;;;;;;5080022;28;20432;-45
2023/09/04 13:06:56;;;;;;;6.97;3.17;;;;;;;;;;5074628;28;20028;-43
2023/09/04 13:09:21;;;;;;;8.80;3.03;;;;;;;;;;5073717;28;20085;-46
2023/09/04 13:11:47;;;;;;;7.18;3.05;;;;;;;;;;5073271;28;20036;-46
2023/09/04 13:14:12;;;;;;;5.15;3.00;;;;;;;;;;5076288;28;20397;-45
2023/09/04 13:16:38;;;;;;;4.70;2.80;;;;;;;;;;5074288;28;20024;-44
2023/09/04 13:19:03;;;;;;;10.05;3.38;;;;;;;;;;5069556;28;20045;-45
2023/09/04 13:21:29;;;;;;;10.23;3.50;;;;;;;;;;5074956;28;20028;-47
2023/09/04 13:23:55;;;;;;;9.07;3.95;;;;;;;;;;5071547;28;20047;-44
2023/09/04 13:26:20;;;;;;;4.50;3.10;;;;;;;;;;5071047;28;20085;-44
2023/09/04 13:28:45;;;;;;;4.15;3.08;;;;;;;;;;5072631;28;20035;-46
2023/09/04 13:31:13;;;;;;;5.00;2.97;;;;;;;;;;5066308;28;20407;-48
2023/09/04 13:33:39;;;;;;;6.28;3.25;;;;;;;;;;5065340;28;20020;-46
2023/09/04 13:36:05;;;;;;;6.97;3.15;;;;;;;;;;5072045;28;20028;-45
2023/09/04 13:38:31;;;;;;;4.13;3.17;;;;;;;;;;5067734;28;20504;-43
2023/09/04 13:40:56;;;;;;;4.72;2.95;;;;;;;;;;5075225;28;20098;-43
2023/09/04 13:43:21;;;;;;;4.13;2.80;;;;;;;;;;5075583;28;20028;-47
2023/09/04 13:45:47;;;;;;;6.63;3.42;;;;;;;;;;5067433;28;20063;-46
2023/09/04 13:48:12;;;;;;;9.93;2.78;;;;;;;;;;5073450;28;20028;-44
2023/09/04 13:50:38;;;;;;;10.20;3.10;;;;;;;;;;5074504;28;20032;-48
2023/09/04 13:53:03;;;;;;;10.43;3.22;;;;;;;;;;5072426;28;20035;-47
2023/09/04 13:55:29;;;;;;;8.30;2.97;;;;;;;;;;5065053;28;20100;-46
2023/09/04 13:57:55;;;;;;;4.50;2.90;;;;;;;;;;5067779;28;20037;-46
2023/09/04 14:00:20;;;;;;;7.45;2.80;;;;;;;;;;5069015;28;20044;-48
2023/09/04 14:02:46;;;;;;;5.13;2.75;;;;;;;;;;5067727;28;20150;-45
2023/09/04 14:05:15;;;;;;;5.15;2.78;;;;;;;;;;5066917;28;20032;-46
2023/09/04 14:07:41;;;;;;;5.22;3.10;;;;;;;;;;5072692;28;20034;-44
2023/09/04 14:10:07;;;;;;;4.55;2.55;;;;;;;;;;5073434;28;20124;-47
2023/09/04 14:12:32;;;;;;;3.83;2.75;;;;;;;;;;5065648;28;20420;-44
2023/09/04 14:14:58;;;;;;;6.72;2.60;;;;;;;;;;5074074;28;20099;-47
2023/09/04 14:17:23;;;;;;;6.15;2.90;;;;;;;;;;5075635;28;20036;-51
2023/09/04 14:19:48;;;;;;;5.88;2.55;;;;;;;;;;5072403;28;20032;-47
2023/09/04 14:22:14;;;;;;;3.65;2.50;;;;;;;;;;5071800;28;20103;-45
2023/09/04 14:24:39;;;;;;;8.35;3.30;;;;;;;;;;5069543;28;20044;-44
2023/09/04 14:27:04;;;;;;;9.38;2.97;;;;;;;;;;5071132;28;20083;-47
2023/09/04 14:29:30;;;;;;;4.40;2.95;;;;;;;;;;5074996;28;20063;-45
2023/09/04 14:31:56;;;;;;;7.13;2.70;;;;;;;;;;5073271;28;20032;-47
2023/09/04 14:34:22;;;;;;;7.53;3.05;;;;;;;;;;5069426;28;20043;-43
2023/09/04 14:36:47;;;;;;;4.88;2.55;;;;;;;;;;5071540;28;20028;-47
2023/09/04 14:39:14;;;;;;;4.47;2.65;;;;;;;;;;5076657;28;20573;-45